Time;durP1;ratioP1;P1;durP2;ratioP2;P2;SDS_P1;SDS_P2;PMS_P1;PMS_P2;Temp;Humidity;BMP_temperature;BMP_pressure;BME280_temperature;BME280_humidity;BME280_pressure;Samples;Min_cycle;Max_cycle;Signal;HPM_P1;HPM_P2
2022/07/30 00:04:08;;;;;;;3.30;2.80;;;;;;;17.64;62.72;99922.42;213997;1274;143492;-65
2022/07/30 00:09:13;;;;;;;3.80;2.60;;;;;;;17.56;63.10;99920.71;216377;1274;141005;-66
2022/07/30 00:14:17;;;;;;;1.90;1.80;;;;;;;17.48;63.38;99920.79;216262;1272;140471;-66
2022/07/30 00:19:22;;;;;;;2.30;2.10;;;;;;;17.44;63.69;99914.73;214163;1276;154651;-66
2022/07/30 00:24:27;;;;;;;4.90;1.90;;;;;;;17.33;64.14;99915.36;214340;1274;141416;-65
2022/07/30 00:29:31;;;;;;;3.00;2.10;;;;;;;17.22;64.40;99909.03;215031;1274;140927;-66
2022/07/30 00:34:35;;;;;;;2.80;2.60;;;;;;;17.17;64.84;99902.30;215134;1274;139799;-66
2022/07/30 00:39:40;;;;;;;6.30;2.00;;;;;;;17.07;65.12;99891.91;213721;1274;140444;-65
2022/07/30 00:44:44;;;;;;;4.50;1.90;;;;;;;16.98;65.24;99873.17;214831;1274;139761;-65
2022/07/30 00:49:48;;;;;;;1.50;1.40;;;;;;;16.97;65.42;99873.50;213648;1274;140332;-65
2022/07/30 00:54:53;;;;;;;2.30;1.90;;;;;;;16.98;65.55;99864.55;213804;1274;140053;-65
2022/07/30 00:59:57;;;;;;;1.90;1.80;;;;;;;16.91;65.91;99858.86;213871;1276;139200;-65
2022/07/30 01:05:00;;;;;;;4.40;1.70;;;;;;;16.84;66.13;99859.20;214163;1276;141468;-66
2022/07/30 01:10:07;;;;;;;2.00;1.70;;;;;;;16.80;66.27;99860.83;213586;1276;142714;-66
2022/07/30 01:15:11;;;;;;;3.50;2.00;;;;;;;16.78;66.52;99859.88;214508;1275;141401;-66
2022/07/30 01:20:21;;;;;;;6.10;2.10;;;;;;;16.74;66.78;99858.38;213410;1276;140509;-66
2022/07/30 01:25:50;;;;;;;2.80;2.10;;;;;;;16.71;66.81;99858.92;214970;1276;139838;-66
2022/07/30 01:30:57;;;;;;;3.30;2.30;;;;;;;16.69;66.98;99852.52;213424;1276;141147;-65
2022/07/30 01:36:02;;;;;;;3.20;2.20;;;;;;;16.69;66.76;99838.40;215424;1275;141682;-66
2022/07/30 01:41:08;;;;;;;1.90;1.60;;;;;;;16.67;66.91;99830.48;215025;1276;141058;-66
2022/07/30 01:46:15;;;;;;;1.60;1.50;;;;;;;16.63;66.87;99833.82;215890;1275;139315;-66
2022/07/30 01:51:19;;;;;;;1.80;1.50;;;;;;;16.58;67.32;99838.00;215850;1275;140305;-66
2022/07/30 01:56:25;;;;;;;1.40;1.40;;;;;;;16.59;67.28;99828.32;216092;1274;142590;-66
2022/07/30 02:01:30;;;;;;;2.70;1.40;;;;;;;16.61;67.36;99834.19;215967;1276;140164;-66
2022/07/30 02:06:40;;;;;;;3.50;2.00;;;;;;;16.63;67.78;99834.40;215152;1276;139397;-66
2022/07/30 02:17:17;;;;;;;7.50;1.70;;;;;;;16.56;67.93;99826.98;214724;1276;140634;-65
2022/07/30 02:22:25;;;;;;;3.40;1.60;;;;;;;16.56;67.90;99823.69;215097;1276;140907;-68
2022/07/30 02:27:32;;;;;;;1.90;1.40;;;;;;;16.53;68.12;99826.38;214310;1276;141193;-66
2022/07/30 02:32:46;;;;;;;3.70;1.50;;;;;;;16.47;68.01;99821.67;214407;1276;141249;-66
2022/07/30 02:37:53;;;;;;;10.70;2.30;;;;;;;16.39;68.05;99817.96;213963;1275;140870;-66
2022/07/30 02:43:00;;;;;;;1.80;1.70;;;;;;;16.36;68.33;99805.97;213605;1276;140657;-65
2022/07/30 02:48:06;;;;;;;2.20;1.20;;;;;;;16.40;68.40;99798.39;213759;1276;141218;-65
2022/07/30 02:53:13;;;;;;;2.20;1.50;;;;;;;16.37;68.48;99791.33;213260;1275;142502;-65
2022/07/30 02:58:22;;;;;;;3.80;1.90;;;;;;;16.34;68.57;99797.63;213820;1274;143112;-65
2022/07/30 03:03:28;;;;;;;2.00;1.90;;;;;;;16.28;68.81;99807.15;213786;1274;140114;-65
2022/07/30 03:08:33;;;;;;;3.90;2.20;;;;;;;16.24;68.65;99797.20;214464;1274;141645;-67
2022/07/30 03:13:37;;;;;;;1.40;1.30;;;;;;;16.20;68.74;99797.65;214672;1273;141387;-65
2022/07/30 03:18:43;;;;;;;3.80;1.60;;;;;;;16.16;69.11;99803.84;213414;1277;141223;-65
2022/07/30 03:23:49;;;;;;;4.50;1.50;;;;;;;16.15;69.16;99799.86;214234;1276;140814;-65
2022/07/30 03:28:53;;;;;;;3.90;2.00;;;;;;;16.19;69.25;99810.13;214710;1275;140024;-65
2022/07/30 03:33:58;;;;;;;5.00;1.50;;;;;;;16.19;69.35;99802.77;215618;1277;140712;-65
2022/07/30 03:39:04;;;;;;;1.50;1.40;;;;;;;16.23;69.18;99793.33;215695;1274;139779;-65
2022/07/30 03:44:09;;;;;;;3.50;1.70;;;;;;;16.30;68.98;99783.22;216139;1274;140439;-65
2022/07/30 03:49:17;;;;;;;4.20;2.10;;;;;;;16.37;68.93;99787.14;215836;1274;140227;-66
2022/07/30 03:54:23;;;;;;;1.60;1.50;;;;;;;16.44;68.83;99788.48;216107;1274;162031;-65
2022/07/30 03:59:28;;;;;;;2.70;1.80;;;;;;;16.47;68.82;99792.67;214876;1274;139345;-67
2022/07/30 04:04:32;;;;;;;3.10;1.60;;;;;;;16.54;68.71;99792.27;215959;1274;140268;-66
2022/07/30 04:09:36;;;;;;;3.40;1.70;;;;;;;16.63;68.67;99798.08;214842;1276;141655;-65
2022/07/30 04:14:43;;;;;;;1.90;1.80;;;;;;;16.72;68.51;99794.48;214454;1276;464136;-65
2022/07/30 04:19:52;;;;;;;2.10;1.90;;;;;;;16.78;68.26;99788.33;214964;1274;140967;-64
2022/07/30 04:24:59;;;;;;;1.40;1.20;;;;;;;16.79;68.58;99786.27;214117;1274;140211;-65
2022/07/30 04:30:04;;;;;;;4.20;2.10;;;;;;;16.78;68.41;99786.55;214912;1274;140058;-65
2022/07/30 04:35:08;;;;;;;2.80;1.80;;;;;;;16.79;68.21;99780.25;214221;1274;139783;-67
2022/07/30 04:40:12;;;;;;;3.10;1.80;;;;;;;16.82;68.03;99771.38;213877;1274;140867;-64
2022/07/30 04:45:19;;;;;;;1.50;1.40;;;;;;;16.82;67.99;99769.06;213994;1274;140195;-64
2022/07/30 04:50:24;;;;;;;;;;;;;;;16.76;68.21;99775.84;214533;1274;141750;-65
2022/07/30 04:55:29;;;;;;;1.80;1.40;;;;;;;16.72;68.27;99779.40;215187;1274;127907;-65
2022/07/30 05:00:37;;;;;;;3.00;1.70;;;;;;;16.75;68.05;99783.33;214453;1274;139617;-65
2022/07/30 05:05:45;;;;;;;3.10;2.20;;;;;;;16.78;68.50;99783.37;214848;1274;140159;-65
2022/07/30 05:10:50;;;;;;;3.20;2.30;;;;;;;16.84;68.38;99767.45;214871;1274;140742;-65
2022/07/30 05:15:58;;;;;;;3.00;1.60;;;;;;;16.91;68.10;99771.73;215169;1274;140728;-66
2022/07/30 05:21:03;;;;;;;5.40;2.20;;;;;;;16.98;68.24;99773.27;215684;1274;139922;-66
2022/07/30 05:26:09;;;;;;;4.60;2.00;;;;;;;17.06;68.27;99771.30;215253;1274;140528;-64
2022/07/30 05:31:13;;;;;;;7.30;2.50;;;;;;;17.14;68.18;99765.97;214519;1274;151535;-65
2022/07/30 05:36:19;;;;;;;3.20;2.10;;;;;;;17.20;68.35;99763.95;214091;1274;208986;-65
2022/07/30 05:41:29;;;;;;;2.80;2.50;;;;;;;17.26;68.35;99761.29;215151;1274;141625;-64
2022/07/30 05:46:38;;;;;;;4.00;2.20;;;;;;;17.35;68.14;99763.50;215941;1275;162655;-65
2022/07/30 05:51:43;;;;;;;2.40;2.20;;;;;;;17.43;68.22;99763.55;215330;1276;143993;-65
2022/07/30 05:56:50;;;;;;;6.10;3.60;;;;;;;17.52;68.24;99756.70;216217;1273;142824;-66
2022/07/30 06:01:54;;;;;;;3.10;2.40;;;;;;;17.65;68.36;99758.75;214270;1274;140851;-66
2022/07/30 06:06:58;;;;;;;2.80;2.40;;;;;;;17.80;68.40;99761.21;213478;1274;142439;-67
2022/07/30 06:12:06;;;;;;;4.60;2.90;;;;;;;17.93;68.59;99767.01;215349;1274;141673;-67
2022/07/30 06:17:10;;;;;;;2.80;2.60;;;;;;;18.02;68.35;99760.08;214598;1274;140141;-66
2022/07/30 06:22:14;;;;;;;8.10;2.90;;;;;;;18.12;68.51;99762.84;213654;1274;140624;-64
2022/07/30 06:27:18;;;;;;;6.60;2.40;;;;;;;18.28;68.75;99760.21;214857;1274;140462;-65
2022/07/30 06:32:22;;;;;;;3.00;2.70;;;;;;;18.52;68.71;99758.63;214395;1274;140807;-68
2022/07/30 06:37:26;;;;;;;7.40;2.30;;;;;;;18.94;68.68;99759.58;214822;1274;142347;-68
2022/07/30 06:42:50;;;;;;;2.80;2.40;;;;;;;19.52;68.21;99751.98;213393;1274;139979;-66
2022/07/30 06:47:58;;;;;;;4.00;2.80;;;;;;;19.89;67.57;99753.10;214183;1274;140794;-64
2022/07/30 06:53:03;;;;;;;2.40;2.20;;;;;;;20.08;67.12;99755.86;213877;1274;141738;-65
2022/07/30 06:58:07;;;;;;;3.90;2.80;;;;;;;20.18;66.83;99753.35;214016;1277;141387;-65
2022/07/30 07:03:12;;;;;;;3.70;3.30;;;;;;;20.27;66.54;99750.16;213511;1276;140711;-66
2022/07/30 07:08:17;;;;;;;5.30;3.30;;;;;;;20.31;66.28;99743.88;214295;1276;144849;-66
2022/07/30 07:20:01;;;;;;;3.00;2.50;;;;;;;20.35;65.88;99723.40;211788;1315;682213;-64
2022/07/30 07:25:05;;;;;;;4.50;3.30;;;;;;;20.51;65.57;99728.97;210865;1290;140555;-66
2022/07/30 07:30:09;;;;;;;6.20;4.00;;;;;;;20.68;65.75;99730.25;210121;1287;985766;-65
2022/07/30 07:35:12;;;;;;;3.10;2.60;;;;;;;20.87;65.23;99723.30;211541;1289;141566;-65
2022/07/30 07:40:15;;;;;;;3.80;2.80;;;;;;;20.95;64.80;99718.30;211370;1287;139445;-66
2022/07/30 07:45:18;;;;;;;3.70;3.00;;;;;;;21.03;64.56;99721.67;211555;1286;139153;-64
2022/07/30 07:50:22;;;;;;;4.20;3.00;;;;;;;21.21;64.20;99715.31;211651;1288;139565;-64
2022/07/30 07:55:25;;;;;;;3.70;2.90;;;;;;;21.49;63.83;99717.83;212332;1288;140314;-64
2022/07/30 08:00:29;;;;;;;4.30;3.80;;;;;;;21.93;63.61;99715.02;211357;1286;140219;-64
2022/07/30 08:05:32;;;;;;;4.90;2.90;;;;;;;22.23;62.90;99703.03;212516;1286;138933;-64
2022/07/30 08:10:57;;;;;;;4.80;3.50;;;;;;;22.36;62.24;99703.88;211084;1286;139407;-64
2022/07/30 08:16:02;;;;;;;2.50;2.40;;;;;;;22.33;61.91;99705.09;212685;1286;141315;-65
2022/07/30 08:21:07;;;;;;;4.50;3.00;;;;;;;22.19;61.61;99710.35;213856;1286;138956;-65
2022/07/30 08:26:10;;;;;;;3.40;3.00;;;;;;;21.93;61.30;99717.47;213968;1285;139695;-66
2022/07/30 08:31:13;;;;;;;3.10;2.90;;;;;;;21.81;61.48;99712.92;213919;1285;139494;-66
2022/07/30 08:36:16;;;;;;;3.60;3.20;;;;;;;21.83;61.65;99713.09;213745;1286;139142;-65
2022/07/30 08:41:20;;;;;;;3.90;3.60;;;;;;;21.85;61.38;99718.82;213070;1286;139409;-64
2022/07/30 08:46:26;;;;;;;3.80;3.50;;;;;;;21.74;61.14;99719.57;213246;1285;141847;-64
2022/07/30 08:51:30;;;;;;;3.90;3.00;;;;;;;21.52;61.13;99732.02;212001;1286;140139;-64
2022/07/30 08:56:33;;;;;;;3.20;2.90;;;;;;;21.20;61.48;99730.41;212094;1289;139590;-64
2022/07/30 09:01:37;;;;;;;4.80;3.60;;;;;;;20.92;61.85;99728.52;213744;1279;139964;-64
2022/07/30 09:06:41;;;;;;;5.10;3.70;;;;;;;20.61;62.40;99732.66;213478;1278;140647;-65
2022/07/30 09:11:45;;;;;;;3.60;3.20;;;;;;;20.37;62.92;99729.21;212828;1280;219954;-65
2022/07/30 09:16:57;;;;;;;4.10;3.40;;;;;;;20.12;63.40;99734.52;213376;1277;141165;-65
2022/07/30 09:22:01;;;;;;;3.70;3.40;;;;;;;19.85;64.26;99730.50;213307;1279;140270;-66
2022/07/30 09:27:04;;;;;;;7.90;3.90;;;;;;;19.63;65.04;99726.05;213387;1279;140178;-65
2022/07/30 09:32:08;;;;;;;4.90;3.50;;;;;;;19.42;65.64;99721.03;212971;1279;141556;-65
2022/07/30 09:37:16;;;;;;;5.30;3.90;;;;;;;19.24;66.44;99723.67;212998;1277;140631;-66
2022/07/30 09:42:28;;;;;;;10.20;3.70;;;;;;;19.11;67.15;99719.20;214429;1280;150710;-66
2022/07/30 09:47:32;;;;;;;5.20;4.60;;;;;;;19.02;67.53;99724.72;213260;1277;231018;-65
2022/07/30 09:52:37;;;;;;;5.70;3.80;;;;;;;18.93;67.69;99720.92;213031;1278;141201;-63
2022/07/30 09:57:59;;;;;;;6.20;4.00;;;;;;;18.82;68.21;99713.36;214852;1279;142563;-65
2022/07/30 10:03:24;;;;;;;4.60;3.70;;;;;;;18.71;68.69;99709.66;213872;1277;139803;-65
2022/07/30 10:08:46;;;;;;;4.80;3.80;;;;;;;18.60;68.95;99709.27;215279;1277;140648;-65
2022/07/30 10:13:56;;;;;;;4.50;3.80;;;;;;;18.57;69.41;99712.80;214904;1280;139537;-65
2022/07/30 10:19:01;;;;;;;4.30;4.00;;;;;;;18.52;69.53;99717.33;215551;1277;141196;-65
2022/07/30 10:24:07;;;;;;;5.40;3.90;;;;;;;18.51;69.84;99716.14;215050;1277;140707;-65
2022/07/30 10:29:11;;;;;;;5.70;4.60;;;;;;;18.56;70.11;99710.11;215552;1280;142130;-65
2022/07/30 10:34:19;;;;;;;6.30;5.10;;;;;;;18.65;70.12;99710.02;214122;1277;140878;-65
2022/07/30 10:39:39;;;;;;;5.50;4.40;;;;;;;18.84;70.19;99705.74;214319;1277;139804;-65
2022/07/30 10:45:12;;;;;;;8.10;4.60;;;;;;;19.09;70.46;99703.61;215302;1277;140741;-64
2022/07/30 10:50:26;;;;;;;6.60;4.70;;;;;;;19.26;70.39;99703.52;213663;1278;140608;-63
2022/07/30 10:55:34;;;;;;;5.00;4.60;;;;;;;19.41;70.26;99701.59;214333;1278;140772;-64
2022/07/30 11:00:52;;;;;;;4.80;4.40;;;;;;;19.46;70.15;99689.29;213593;1277;140247;-64
2022/07/30 11:06:13;;;;;;;5.90;4.50;;;;;;;19.55;70.55;99688.14;213797;1278;139432;-66
2022/07/30 11:11:40;;;;;;;5.30;4.90;;;;;;;19.61;70.27;99684.48;212890;1277;139823;-64
2022/07/30 11:17:03;;;;;;;5.10;4.60;;;;;;;19.53;70.12;99675.20;213194;1277;139496;-65
2022/07/30 11:22:37;;;;;;;5.00;4.50;;;;;;;19.45;70.36;99673.03;213015;1280;139558;-65
2022/07/30 11:27:45;;;;;;;5.70;4.60;;;;;;;19.51;70.61;99666.96;214432;1276;139783;-65
2022/07/30 11:33:15;;;;;;;6.00;5.40;;;;;;;19.59;70.67;99663.30;213099;1277;140468;-65
2022/07/30 11:38:21;;;;;;;8.20;4.70;;;;;;;19.69;70.54;99655.52;214624;1276;141219;-66
2022/07/30 11:43:31;;;;;;;6.80;5.60;;;;;;;19.89;70.51;99642.95;214187;1275;139472;-65
2022/07/30 11:48:57;;;;;;;6.50;5.00;;;;;;;20.07;70.08;99638.50;213300;1275;141963;-67
2022/07/30 11:54:06;;;;;;;5.10;4.70;;;;;;;20.21;69.93;99635.13;213794;1276;140267;-65
2022/07/30 11:59:09;;;;;;;5.10;4.70;;;;;;;20.33;70.04;99632.03;213744;1277;140649;-65
2022/07/30 12:04:13;;;;;;;6.40;5.30;;;;;;;20.45;70.12;99631.92;213663;1277;139411;-65
2022/07/30 12:09:22;;;;;;;5.50;4.80;;;;;;;20.55;69.54;99638.69;214828;1276;140879;-65
2022/07/30 12:14:35;;;;;;;6.40;5.40;;;;;;;20.62;69.42;99634.59;214444;1275;141256;-66
2022/07/30 12:19:45;;;;;;;5.90;5.30;;;;;;;20.70;69.14;99629.16;215857;1275;139815;-65
2022/07/30 12:24:50;;;;;;;5.80;4.00;;;;;;;20.82;69.09;99625.23;215845;1276;140572;-66
2022/07/30 12:29:53;;;;;;;5.80;4.50;;;;;;;20.86;68.65;99625.29;216024;1277;139978;-65
2022/07/30 12:34:55;;;;;;;5.30;4.90;;;;;;;20.75;68.42;99621.70;215160;1277;139606;-66
2022/07/30 12:40:10;;;;;;;7.60;5.80;;;;;;;20.65;68.53;99619.05;212960;1276;139970;-66
2022/07/30 12:45:31;;;;;;;5.40;4.80;;;;;;;20.53;68.63;99619.30;215294;1275;139508;-65
2022/07/30 12:51:04;;;;;;;7.90;5.50;;;;;;;20.39;68.87;99618.45;214666;1277;141052;-66
2022/07/30 12:56:18;;;;;;;7.40;5.50;;;;;;;20.29;69.09;99617.27;214600;1275;141922;-65
2022/07/30 13:01:40;;;;;;;6.70;6.00;;;;;;;20.17;69.25;99620.06;214222;1274;141047;-65
2022/07/30 13:07:09;;;;;;;5.90;5.30;;;;;;;20.06;69.39;99620.61;214865;1277;140458;-62
2022/07/30 13:12:13;;;;;;;6.90;5.10;;;;;;;20.00;69.59;99619.15;213953;1277;140373;-64
2022/07/30 13:17:18;;;;;;;5.90;5.00;;;;;;;19.93;69.55;99614.57;213985;1277;141109;-64
2022/07/30 13:22:23;;;;;;;5.80;5.30;;;;;;;19.85;69.85;99613.98;213659;1277;141346;-65
2022/07/30 13:27:28;;;;;;;5.20;4.80;;;;;;;19.76;70.00;99610.39;214521;1274;140188;-66
2022/07/30 13:32:30;;;;;;;5.00;4.60;;;;;;;19.64;70.11;99601.45;213840;1275;141414;-65
2022/07/30 13:37:33;;;;;;;5.20;4.60;;;;;;;19.57;70.24;99603.60;213400;1276;141205;-66
2022/07/30 13:42:40;;;;;;;6.10;5.10;;;;;;;19.53;70.53;99606.64;213399;1277;140031;-64
2022/07/30 13:47:45;;;;;;;6.00;5.50;;;;;;;19.54;70.85;99605.07;213184;1277;139373;-64
2022/07/30 13:52:48;;;;;;;6.10;5.20;;;;;;;19.52;70.94;99601.26;215194;1274;139826;-66
2022/07/30 13:57:51;;;;;;;7.00;5.10;;;;;;;19.59;71.07;99595.49;213249;1277;140148;-66
2022/07/30 14:02:54;;;;;;;5.50;5.00;;;;;;;19.62;70.90;99598.67;215101;1276;142046;-65
2022/07/30 14:07:57;;;;;;;5.80;5.30;;;;;;;19.60;71.11;99592.94;215099;1275;230902;-65
2022/07/30 14:13:00;;;;;;;5.10;4.70;;;;;;;19.56;71.14;99582.86;215602;1275;139429;-65
2022/07/30 14:18:02;;;;;;;4.80;4.50;;;;;;;19.59;71.19;99578.29;213588;1275;141052;-63
2022/07/30 14:23:05;;;;;;;4.60;4.20;;;;;;;19.61;71.33;99574.41;215561;1274;233153;-64
2022/07/30 14:28:08;;;;;;;5.90;4.40;;;;;;;19.68;71.34;99570.56;216013;1276;139447;-65
2022/07/30 14:33:11;;;;;;;6.20;5.40;;;;;;;19.78;71.42;99571.69;215949;1277;140295;-64
2022/07/30 14:38:13;;;;;;;7.00;4.90;;;;;;;19.84;71.43;99566.27;214415;1274;139844;-64
2022/07/30 14:43:18;;;;;;;7.60;5.80;;;;;;;19.81;71.31;99562.70;215557;1277;140588;-65
2022/07/30 14:48:20;;;;;;;5.80;4.80;;;;;;;19.82;71.42;99562.36;215318;1276;140162;-65
2022/07/30 14:53:22;;;;;;;6.90;4.40;;;;;;;19.82;71.52;99565.50;214251;1274;141902;-65
2022/07/30 14:58:25;;;;;;;4.90;4.60;;;;;;;19.80;71.84;99563.04;213555;1276;140781;-65
2022/07/30 15:03:27;;;;;;;5.90;5.30;;;;;;;19.77;71.69;99566.46;214989;1276;140918;-66
2022/07/30 15:08:29;;;;;;;9.80;6.30;;;;;;;19.67;71.75;99564.64;213265;1276;140927;-65
2022/07/30 15:13:36;;;;;;;5.50;5.10;;;;;;;19.54;72.09;99559.48;213251;1276;139976;-64
2022/07/30 15:18:52;;;;;;;5.90;5.50;;;;;;;19.50;72.44;99556.08;213271;1277;140545;-65
2022/07/30 15:23:54;;;;;;;6.10;5.70;;;;;;;19.45;72.57;99552.52;213141;1274;140630;-65
2022/07/30 15:28:58;;;;;;;5.90;4.90;;;;;;;19.40;72.84;99552.38;213220;1277;140717;-66
2022/07/30 15:34:03;;;;;;;5.80;5.30;;;;;;;19.36;73.00;99545.75;213265;1276;141962;-65
2022/07/30 15:39:10;;;;;;;5.20;4.70;;;;;;;19.30;73.18;99540.38;213492;1274;142468;-65
2022/07/30 15:44:13;;;;;;;5.30;4.90;;;;;;;19.28;73.53;99535.36;213668;1276;141241;-64
2022/07/30 15:49:16;;;;;;;5.10;4.70;;;;;;;19.28;73.74;99529.56;214701;1276;139834;-65
2022/07/30 15:54:23;;;;;;;6.50;4.40;;;;;;;19.29;73.66;99527.61;214177;1274;140557;-65
2022/07/30 15:59:27;;;;;;;4.50;4.20;;;;;;;19.26;73.83;99521.81;213213;1277;141121;-66
2022/07/30 16:04:31;;;;;;;6.30;4.70;;;;;;;19.20;73.80;99518.04;214638;1276;141767;-67
2022/07/30 16:09:34;;;;;;;9.90;5.20;;;;;;;19.11;73.70;99512.23;213155;1275;139482;-65
2022/07/30 16:14:37;;;;;;;5.40;5.00;;;;;;;19.06;74.14;99514.55;215285;1275;140361;-68
2022/07/30 16:19:40;;;;;;;6.00;4.60;;;;;;;19.00;74.02;99514.20;215851;1276;140378;-67
2022/07/30 16:24:46;;;;;;;5.40;4.70;;;;;;;18.96;74.24;99513.35;215796;1275;141660;-67
2022/07/30 16:29:49;;;;;;;4.70;4.30;;;;;;;18.95;74.16;99514.08;214479;1276;140689;-66
2022/07/30 16:34:53;;;;;;;4.80;4.20;;;;;;;18.91;74.12;99513.08;215225;1275;142216;-64
2022/07/30 16:39:57;;;;;;;4.70;3.80;;;;;;;18.86;74.51;99512.73;215777;1275;140407;-63
2022/07/30 16:45:01;;;;;;;5.80;4.80;;;;;;;18.83;74.58;99516.11;213817;1274;142536;-63
2022/07/30 16:50:09;;;;;;;6.20;3.80;;;;;;;18.80;74.65;99521.60;214928;1275;141803;-64
2022/07/30 16:55:16;;;;;;;;;;;;;;;18.78;74.86;99529.30;215391;1275;141529;-64
2022/07/30 17:00:23;;;;;;;5.90;4.00;;;;;;;18.73;74.87;99533.42;213832;1274;126381;-65
2022/07/30 17:05:26;;;;;;;6.50;4.10;;;;;;;18.68;75.03;99531.78;213466;1274;140198;-66
2022/07/30 17:10:29;;;;;;;9.30;4.30;;;;;;;18.59;75.08;99534.52;213240;1275;140412;-67
2022/07/30 17:15:32;;;;;;;3.80;3.50;;;;;;;18.51;75.36;99529.52;212963;1274;139878;-66
2022/07/30 17:20:40;;;;;;;8.50;4.40;;;;;;;18.42;75.58;99526.48;213563;1275;140255;-66
2022/07/30 17:25:47;;;;;;;4.50;4.00;;;;;;;18.32;75.68;99525.04;213359;1275;139803;-66
2022/07/30 17:30:53;;;;;;;5.10;4.20;;;;;;;18.24;76.04;99527.04;213385;1276;140445;-64
2022/07/30 17:36:01;;;;;;;;;;;;;;;18.20;76.39;99522.77;213727;1276;141223;-66
2022/07/30 17:41:05;;;;;;;3.20;2.90;;;;;;;18.14;76.46;99522.67;215396;1276;126751;-65
2022/07/30 17:46:22;;;;;;;5.50;3.00;;;;;;;18.09;76.64;99524.95;214510;1277;140217;-65
2022/07/30 17:51:38;;;;;;;4.00;3.60;;;;;;;18.09;76.84;99525.64;213485;1274;141801;-66
2022/07/30 17:56:50;;;;;;;8.30;4.30;;;;;;;18.06;76.98;99517.64;213807;1274;140836;-66
2022/07/30 18:01:59;;;;;;;5.10;3.50;;;;;;;18.00;77.11;99517.64;213506;1275;221285;-66
2022/07/30 18:07:08;;;;;;;5.80;4.50;;;;;;;17.91;77.27;99520.54;214163;1275;139740;-66
2022/07/30 18:12:11;;;;;;;4.50;4.20;;;;;;;17.86;77.50;99515.47;213139;1274;141489;-66
2022/07/30 18:17:13;;;;;;;9.70;4.00;;;;;;;17.82;77.82;99516.65;214885;1276;140561;-66
2022/07/30 18:22:16;;;;;;;3.70;3.30;;;;;;;17.80;77.88;99509.71;214486;1274;139816;-65
2022/07/30 18:27:31;;;;;;;4.70;3.80;;;;;;;17.81;78.15;99512.29;214442;1276;141433;-66
2022/07/30 18:32:37;;;;;;;4.30;4.00;;;;;;;17.83;78.19;99513.94;216078;1276;140651;-66
2022/07/30 18:37:40;;;;;;;4.40;4.00;;;;;;;17.84;78.22;99518.73;215974;1276;141374;-66
2022/07/30 18:42:45;;;;;;;5.00;3.60;;;;;;;17.85;78.29;99523.63;214344;1276;140451;-65
2022/07/30 18:47:48;;;;;;;8.20;4.00;;;;;;;17.86;78.45;99530.41;214861;1276;140268;-66
2022/07/30 18:52:53;;;;;;;4.30;3.90;;;;;;;17.90;78.45;99539.21;214819;1275;140295;-66
2022/07/30 18:57:55;;;;;;;4.30;4.00;;;;;;;17.88;78.43;99533.14;214128;1277;141772;-66
2022/07/30 19:03:03;;;;;;;3.60;3.30;;;;;;;17.84;78.40;99538.67;213918;1277;140146;-65
2022/07/30 19:08:22;;;;;;;3.90;3.50;;;;;;;17.78;78.52;99535.30;214072;1278;142437;-65
2022/07/30 19:13:25;;;;;;;4.30;3.90;;;;;;;17.72;78.63;99530.84;213685;1276;141251;-66
2022/07/30 19:18:30;;;;;;;3.90;3.60;;;;;;;17.72;78.95;99537.81;213390;1276;143664;-67
2022/07/30 19:23:34;;;;;;;3.60;3.30;;;;;;;17.70;79.10;99537.07;213326;1276;141522;-66
2022/07/30 19:28:38;;;;;;;3.80;3.50;;;;;;;17.62;79.00;99528.29;213762;1276;140620;-65
2022/07/30 19:33:43;;;;;;;3.40;3.20;;;;;;;17.52;79.03;99524.39;213646;1274;356101;-65
2022/07/30 19:38:46;;;;;;;3.10;2.90;;;;;;;17.45;79.28;99510.55;213414;1276;140762;-66
2022/07/30 19:43:52;;;;;;;3.60;3.20;;;;;;;17.43;79.44;99507.61;215040;1275;140376;-66
2022/07/30 19:49:00;;;;;;;4.00;3.30;;;;;;;17.40;79.51;99508.84;213173;1274;140554;-65
2022/07/30 19:54:04;;;;;;;4.60;3.30;;;;;;;17.35;79.58;99502.58;213725;1274;142049;-65
2022/07/30 19:59:09;;;;;;;4.40;3.20;;;;;;;17.32;79.63;99500.41;214258;1276;140943;-67
2022/07/30 20:04:18;;;;;;;4.90;2.80;;;;;;;17.30;79.78;99495.95;212949;1276;141620;-65
2022/07/30 20:09:28;;;;;;;4.60;3.40;;;;;;;17.28;79.86;99486.27;215784;1274;140973;-65
2022/07/30 20:14:32;;;;;;;4.20;3.10;;;;;;;17.27;79.79;99485.84;215184;1275;140069;-65
2022/07/30 20:19:35;;;;;;;2.90;2.70;;;;;;;17.26;79.94;99482.46;216091;1274;141855;-66
2022/07/30 20:24:41;;;;;;;3.10;2.90;;;;;;;17.25;79.96;99476.00;215830;1274;140484;-65
2022/07/30 20:29:45;;;;;;;3.50;3.20;;;;;;;17.24;79.88;99470.67;215352;1274;140880;-65
2022/07/30 20:34:52;;;;;;;5.60;4.10;;;;;;;17.21;79.83;99470.55;214318;1276;140950;-67
2022/07/30 20:39:55;;;;;;;2.80;2.60;;;;;;;17.18;79.99;99462.55;214865;1276;140337;-66
2022/07/30 20:45:00;;;;;;;3.40;2.60;;;;;;;17.11;79.98;99458.52;215035;1274;141772;-65
2022/07/30 20:50:24;;;;;;;2.90;2.50;;;;;;;17.07;80.00;99458.20;213789;1276;139994;-66
2022/07/30 20:55:32;;;;;;;3.00;2.80;;;;;;;17.00;80.10;99453.84;213127;1276;139789;-65
2022/07/30 21:00:36;;;;;;;3.00;2.80;;;;;;;16.93;80.21;99445.99;213843;1274;140480;-65
2022/07/30 21:05:41;;;;;;;3.30;3.00;;;;;;;16.85;80.41;99454.92;213096;1275;140164;-66
2022/07/30 21:10:48;;;;;;;3.40;3.20;;;;;;;16.81;80.61;99452.02;214405;1276;140404;-65
2022/07/30 21:15:52;;;;;;;7.60;3.40;;;;;;;16.79;80.72;99453.23;213440;1274;140538;-65
2022/07/30 21:21:04;;;;;;;2.60;2.10;;;;;;;16.76;80.68;99455.14;213468;1276;142419;-65
2022/07/30 21:26:07;;;;;;;3.30;2.70;;;;;;;16.74;80.87;99449.44;213717;1276;140761;-65
2022/07/30 21:31:15;;;;;;;3.40;3.10;;;;;;;16.70;80.80;99443.00;214214;1276;141707;-66
2022/07/30 21:36:17;;;;;;;4.40;3.40;;;;;;;16.67;80.96;99438.73;213412;1275;140299;-66
2022/07/30 21:41:27;;;;;;;2.20;2.10;;;;;;;16.65;80.97;99443.91;214103;1275;140807;-65
2022/07/30 21:46:49;;;;;;;3.10;2.80;;;;;;;16.59;80.97;99450.59;213341;1276;140649;-66
2022/07/30 21:51:51;;;;;;;3.70;3.40;;;;;;;16.52;81.01;99445.75;214757;1275;140310;-67
2022/07/30 21:56:58;;;;;;;4.40;4.10;;;;;;;16.49;81.07;99449.17;213476;1274;140492;-66
2022/07/30 22:02:02;;;;;;;5.90;5.40;;;;;;;16.46;81.15;99450.93;214823;1276;141892;-66
2022/07/30 22:07:18;;;;;;;5.10;4.70;;;;;;;16.41;81.18;99443.75;214111;1275;140162;-66
2022/07/30 22:12:23;;;;;;;4.90;3.90;;;;;;;16.33;81.24;99442.08;214531;1274;140830;-65
2022/07/30 22:17:32;;;;;;;4.10;3.70;;;;;;;16.29;81.33;99441.39;214234;1276;140569;-66
2022/07/30 22:23:17;;;;;;;3.70;3.40;;;;;;;16.22;81.35;99433.00;216062;1275;141177;-67
2022/07/30 22:28:21;;;;;;;3.10;2.90;;;;;;;16.12;81.45;99427.59;215806;1274;141428;-66
2022/07/30 22:33:28;;;;;;;2.50;2.30;;;;;;;16.05;81.58;99425.26;213950;1276;142402;-66
2022/07/30 22:38:37;;;;;;;4.70;3.20;;;;;;;16.03;81.84;99418.86;215819;1276;142057;-66
2022/07/30 22:43:41;;;;;;;2.60;2.40;;;;;;;16.08;81.97;99413.63;214818;1274;140687;-66
2022/07/30 22:48:45;;;;;;;2.60;2.40;;;;;;;16.10;81.99;99400.92;213244;1276;140308;-67
2022/07/30 22:53:49;;;;;;;3.00;2.80;;;;;;;16.10;82.12;99399.58;213862;1274;143418;-66
2022/07/30 22:59:15;;;;;;;3.50;3.20;;;;;;;16.12;82.25;99395.59;213858;1274;140691;-67
2022/07/30 23:04:39;;;;;;;3.00;2.80;;;;;;;16.13;82.24;99389.73;213463;1276;140892;-65
2022/07/30 23:09:42;;;;;;;11.10;3.50;;;;;;;16.10;82.31;99384.85;213192;1275;141801;-65
2022/07/30 23:14:54;;;;;;;3.20;3.00;;;;;;;16.09;82.37;99381.09;214050;1274;140648;-66
2022/07/30 23:20:01;;;;;;;3.30;2.20;;;;;;;16.04;82.35;99373.53;213608;1277;140946;-65
2022/07/30 23:25:06;;;;;;;2.60;2.50;;;;;;;16.04;82.49;99370.95;213810;1276;140894;-67
2022/07/30 23:30:10;;;;;;;2.80;2.50;;;;;;;16.03;82.47;99367.30;213245;1274;140743;-66
2022/07/30 23:35:15;;;;;;;2.40;2.30;;;;;;;15.99;82.55;99359.69;213509;1276;139996;-66
2022/07/30 23:40:18;;;;;;;2.50;2.30;;;;;;;15.97;82.72;99359.65;213653;1276;140734;-65
2022/07/30 23:45:21;;;;;;;2.50;2.30;;;;;;;15.95;82.70;99350.45;213866;1276;142543;-66